sensor_id;sensor_type;location;lat;lon;timestamp;P1;durP1;ratioP1;P2;durP2;ratioP2
81510;SDS011;70931;48.796;8.440;2023-11-21T00:01:57;2.63;;;0.80;;
81510;SDS011;70931;48.796;8.440;2023-11-21T00:04:23;3.65;;;0.88;;
81510;SDS011;70931;48.796;8.440;2023-11-21T00:06:48;4.10;;;0.70;;
81510;SDS011;70931;48.796;8.440;2023-11-21T00:09:13;1.73;;;0.70;;
81510;SDS011;70931;48.796;8.440;2023-11-21T00:11:39;1.48;;;0.52;;
81510;SDS011;70931;48.796;8.440;2023-11-21T00:14:04;1.03;;;0.60;;
81510;SDS011;70931;48.796;8.440;2023-11-21T00:16:30;3.22;;;0.70;;
81510;SDS011;70931;48.796;8.440;2023-11-21T00:18:55;0.73;;;0.40;;
81510;SDS011;70931;48.796;8.440;2023-11-21T00:21:20;0.77;;;0.60;;
81510;SDS011;70931;48.796;8.440;2023-11-21T00:23:45;1.80;;;0.50;;
81510;SDS011;70931;48.796;8.440;2023-11-21T00:26:11;1.37;;;0.50;;
81510;SDS011;70931;48.796;8.440;2023-11-21T00:28:36;0.80;;;0.47;;
81510;SDS011;70931;48.796;8.440;2023-11-21T00:31:01;1.37;;;0.50;;
81510;SDS011;70931;48.796;8.440;2023-11-21T00:33:26;0.53;;;0.47;;
81510;SDS011;70931;48.796;8.440;2023-11-21T00:35:52;1.40;;;0.60;;
81510;SDS011;70931;48.796;8.440;2023-11-21T00:38:17;2.33;;;0.70;;
81510;SDS011;70931;48.796;8.440;2023-11-21T00:40:42;2.10;;;0.67;;
81510;SDS011;70931;48.796;8.440;2023-11-21T00:43:07;1.00;;;0.57;;
81510;SDS011;70931;48.796;8.440;2023-11-21T00:45:32;2.43;;;0.70;;
81510;SDS011;70931;48.796;8.440;2023-11-21T00:47:58;1.30;;;0.60;;
81510;SDS011;70931;48.796;8.440;2023-11-21T00:50:23;1.67;;;0.90;;
81510;SDS011;70931;48.796;8.440;2023-11-21T00:52:48;1.50;;;0.70;;
81510;SDS011;70931;48.796;8.440;2023-11-21T00:55:13;2.73;;;0.70;;
81510;SDS011;70931;48.796;8.440;2023-11-21T00:57:38;2.30;;;0.70;;
81510;SDS011;70931;48.796;8.440;2023-11-21T01:00:04;1.63;;;0.60;;
81510;SDS011;70931;48.796;8.440;2023-11-21T01:02:30;1.02;;;0.70;;
81510;SDS011;70931;48.796;8.440;2023-11-21T01:04:55;1.33;;;0.60;;
81510;SDS011;70931;48.796;8.440;2023-11-21T01:07:21;1.53;;;0.57;;
81510;SDS011;70931;48.796;8.440;2023-11-21T01:09:46;1.03;;;0.67;;
81510;SDS011;70931;48.796;8.440;2023-11-21T01:12:11;1.97;;;0.60;;
81510;SDS011;70931;48.796;8.440;2023-11-21T01:14:36;1.37;;;0.60;;
81510;SDS011;70931;48.796;8.440;2023-11-21T01:17:02;3.07;;;0.60;;
81510;SDS011;70931;48.796;8.440;2023-11-21T01:19:27;1.70;;;0.60;;
81510;SDS011;70931;48.796;8.440;2023-11-21T01:21:52;2.07;;;0.80;;
81510;SDS011;70931;48.796;8.440;2023-11-21T01:24:17;2.50;;;0.80;;
81510;SDS011;70931;48.796;8.440;2023-11-21T01:26:42;1.70;;;0.70;;
81510;SDS011;70931;48.796;8.440;2023-11-21T01:29:08;3.80;;;0.80;;
81510;SDS011;70931;48.796;8.440;2023-11-21T01:31:33;3.10;;;0.57;;
81510;SDS011;70931;48.796;8.440;2023-11-21T01:33:58;2.40;;;0.60;;
81510;SDS011;70931;48.796;8.440;2023-11-21T01:36:29;2.27;;;0.70;;
81510;SDS011;70931;48.796;8.440;2023-11-21T01:38:55;1.50;;;0.70;;
81510;SDS011;70931;48.796;8.440;2023-11-21T01:41:20;3.60;;;0.90;;
81510;SDS011;70931;48.796;8.440;2023-11-21T01:43:45;0.97;;;0.70;;
81510;SDS011;70931;48.796;8.440;2023-11-21T01:46:10;3.77;;;0.60;;
81510;SDS011;70931;48.796;8.440;2023-11-21T01:48:36;1.60;;;0.67;;
81510;SDS011;70931;48.796;8.440;2023-11-21T01:51:01;1.70;;;0.80;;
81510;SDS011;70931;48.796;8.440;2023-11-21T01:53:27;2.15;;;0.80;;
81510;SDS011;70931;48.796;8.440;2023-11-21T01:55:52;0.60;;;0.50;;
81510;SDS011;70931;48.796;8.440;2023-11-21T01:58:18;1.77;;;0.60;;
81510;SDS011;70931;48.796;8.440;2023-11-21T02:00:43;1.30;;;0.67;;
81510;SDS011;70931;48.796;8.440;2023-11-21T02:03:08;1.60;;;0.57;;
81510;SDS011;70931;48.796;8.440;2023-11-21T02:05:34;2.10;;;0.65;;
81510;SDS011;70931;48.796;8.440;2023-11-21T02:07:59;3.13;;;0.50;;
81510;SDS011;70931;48.796;8.440;2023-11-21T02:10:24;1.57;;;0.60;;
81510;SDS011;70931;48.796;8.440;2023-11-21T02:12:49;2.23;;;0.60;;
81510;SDS011;70931;48.796;8.440;2023-11-21T02:15:15;2.40;;;0.60;;
81510;SDS011;70931;48.796;8.440;2023-11-21T02:17:41;2.22;;;0.50;;
81510;SDS011;70931;48.796;8.440;2023-11-21T02:20:07;3.05;;;0.80;;
81510;SDS011;70931;48.796;8.440;2023-11-21T02:22:33;1.52;;;0.60;;
81510;SDS011;70931;48.796;8.440;2023-11-21T02:25:04;0.40;;;0.40;;
81510;SDS011;70931;48.796;8.440;2023-11-21T02:27:29;1.77;;;0.60;;
81510;SDS011;70931;48.796;8.440;2023-11-21T02:29:55;1.10;;;0.50;;
81510;SDS011;70931;48.796;8.440;2023-11-21T02:32:20;1.90;;;0.50;;
81510;SDS011;70931;48.796;8.440;2023-11-21T02:34:45;1.40;;;0.57;;
81510;SDS011;70931;48.796;8.440;2023-11-21T02:37:10;0.43;;;0.30;;
81510;SDS011;70931;48.796;8.440;2023-11-21T02:39:35;2.07;;;0.67;;
81510;SDS011;70931;48.796;8.440;2023-11-21T02:42:01;1.27;;;0.70;;
81510;SDS011;70931;48.796;8.440;2023-11-21T02:44:26;2.10;;;0.53;;
81510;SDS011;70931;48.796;8.440;2023-11-21T02:46:51;2.20;;;0.50;;
81510;SDS011;70931;48.796;8.440;2023-11-21T02:49:16;2.10;;;0.50;;
81510;SDS011;70931;48.796;8.440;2023-11-21T02:51:42;1.60;;;0.60;;
81510;SDS011;70931;48.796;8.440;2023-11-21T02:54:07;1.27;;;0.57;;
81510;SDS011;70931;48.796;8.440;2023-11-21T02:56:33;0.98;;;0.60;;
81510;SDS011;70931;48.796;8.440;2023-11-21T02:58:59;2.63;;;0.50;;
81510;SDS011;70931;48.796;8.440;2023-11-21T03:01:25;0.98;;;0.60;;
81510;SDS011;70931;48.796;8.440;2023-11-21T03:03:51;1.73;;;0.70;;
81510;SDS011;70931;48.796;8.440;2023-11-21T03:06:17;1.20;;;0.75;;
81510;SDS011;70931;48.796;8.440;2023-11-21T03:08:43;2.42;;;0.80;;
81510;SDS011;70931;48.796;8.440;2023-11-21T03:11:08;2.23;;;0.90;;
81510;SDS011;70931;48.796;8.440;2023-11-21T03:13:34;1.53;;;0.70;;
81510;SDS011;70931;48.796;8.440;2023-11-21T03:15:59;2.50;;;1.10;;
81510;SDS011;70931;48.796;8.440;2023-11-21T03:18:24;4.87;;;1.27;;
81510;SDS011;70931;48.796;8.440;2023-11-21T03:20:52;2.70;;;1.00;;
81510;SDS011;70931;48.796;8.440;2023-11-21T03:23:18;2.35;;;1.00;;
81510;SDS011;70931;48.796;8.440;2023-11-21T03:25:43;1.95;;;0.77;;
81510;SDS011;70931;48.796;8.440;2023-11-21T03:28:08;2.30;;;1.00;;
81510;SDS011;70931;48.796;8.440;2023-11-21T03:30:34;1.37;;;0.80;;
81510;SDS011;70931;48.796;8.440;2023-11-21T03:32:59;1.53;;;0.93;;
81510;SDS011;70931;48.796;8.440;2023-11-21T03:35:24;4.30;;;1.33;;
81510;SDS011;70931;48.796;8.440;2023-11-21T03:37:49;2.67;;;0.90;;
81510;SDS011;70931;48.796;8.440;2023-11-21T03:40:15;2.83;;;0.70;;
81510;SDS011;70931;48.796;8.440;2023-11-21T03:42:40;1.80;;;0.80;;
81510;SDS011;70931;48.796;8.440;2023-11-21T03:45:05;1.03;;;0.40;;
81510;SDS011;70931;48.796;8.440;2023-11-21T03:47:31;2.15;;;0.50;;
81510;SDS011;70931;48.796;8.440;2023-11-21T03:49:56;2.57;;;0.63;;
81510;SDS011;70931;48.796;8.440;2023-11-21T03:52:22;1.70;;;0.60;;
81510;SDS011;70931;48.796;8.440;2023-11-21T03:54:47;0.80;;;0.50;;
81510;SDS011;70931;48.796;8.440;2023-11-21T03:57:12;1.80;;;0.83;;
81510;SDS011;70931;48.796;8.440;2023-11-21T03:59:40;2.23;;;1.17;;
81510;SDS011;70931;48.796;8.440;2023-11-21T04:02:06;3.15;;;0.80;;
81510;SDS011;70931;48.796;8.440;2023-11-21T04:04:31;3.87;;;0.80;;
81510;SDS011;70931;48.796;8.440;2023-11-21T04:06:56;2.67;;;1.00;;
81510;SDS011;70931;48.796;8.440;2023-11-21T04:09:22;1.93;;;1.00;;
81510;SDS011;70931;48.796;8.440;2023-11-21T04:11:47;3.37;;;1.00;;
81510;SDS011;70931;48.796;8.440;2023-11-21T04:14:12;3.53;;;1.33;;
81510;SDS011;70931;48.796;8.440;2023-11-21T04:16:38;3.63;;;1.40;;
81510;SDS011;70931;48.796;8.440;2023-11-21T04:19:03;3.57;;;1.30;;
81510;SDS011;70931;48.796;8.440;2023-11-21T04:21:28;5.47;;;1.63;;
81510;SDS011;70931;48.796;8.440;2023-11-21T04:23:53;4.70;;;1.30;;
81510;SDS011;70931;48.796;8.440;2023-11-21T04:26:19;4.57;;;1.60;;
81510;SDS011;70931;48.796;8.440;2023-11-21T04:28:44;3.30;;;1.37;;
81510;SDS011;70931;48.796;8.440;2023-11-21T04:31:09;4.47;;;1.73;;
81510;SDS011;70931;48.796;8.440;2023-11-21T04:33:34;3.67;;;1.60;;
81510;SDS011;70931;48.796;8.440;2023-11-21T04:35:59;4.90;;;1.60;;
81510;SDS011;70931;48.796;8.440;2023-11-21T04:38:25;4.23;;;1.50;;
81510;SDS011;70931;48.796;8.440;2023-11-21T04:40:50;6.80;;;1.80;;
81510;SDS011;70931;48.796;8.440;2023-11-21T04:43:15;4.10;;;1.53;;
81510;SDS011;70931;48.796;8.440;2023-11-21T04:45:40;4.43;;;1.77;;
81510;SDS011;70931;48.796;8.440;2023-11-21T04:48:06;4.32;;;1.63;;
81510;SDS011;70931;48.796;8.440;2023-11-21T04:50:32;3.15;;;1.40;;
81510;SDS011;70931;48.796;8.440;2023-11-21T04:52:57;4.23;;;1.93;;
81510;SDS011;70931;48.796;8.440;2023-11-21T04:55:22;5.43;;;1.67;;
81510;SDS011;70931;48.796;8.440;2023-11-21T04:57:48;4.17;;;1.30;;
81510;SDS011;70931;48.796;8.440;2023-11-21T05:00:13;4.47;;;1.80;;
81510;SDS011;70931;48.796;8.440;2023-11-21T05:02:41;4.43;;;1.85;;
81510;SDS011;70931;48.796;8.440;2023-11-21T05:05:07;5.43;;;1.98;;
81510;SDS011;70931;48.796;8.440;2023-11-21T05:07:32;5.97;;;2.03;;
81510;SDS011;70931;48.796;8.440;2023-11-21T05:09:58;5.43;;;1.90;;
81510;SDS011;70931;48.796;8.440;2023-11-21T05:12:23;3.87;;;1.60;;
81510;SDS011;70931;48.796;8.440;2023-11-21T05:14:49;4.95;;;1.85;;
81510;SDS011;70931;48.796;8.440;2023-11-21T05:17:15;4.43;;;1.42;;
81510;SDS011;70931;48.796;8.440;2023-11-21T05:19:40;6.53;;;1.50;;
81510;SDS011;70931;48.796;8.440;2023-11-21T05:22:05;4.40;;;1.60;;
81510;SDS011;70931;48.796;8.440;2023-11-21T05:24:31;3.33;;;1.33;;
81510;SDS011;70931;48.796;8.440;2023-11-21T05:26:56;3.63;;;1.53;;
81510;SDS011;70931;48.796;8.440;2023-11-21T05:29:21;3.03;;;1.20;;
81510;SDS011;70931;48.796;8.440;2023-11-21T05:31:47;3.45;;;1.10;;
81510;SDS011;70931;48.796;8.440;2023-11-21T05:34:12;2.97;;;1.00;;
81510;SDS011;70931;48.796;8.440;2023-11-21T05:36:37;2.33;;;0.90;;
81510;SDS011;70931;48.796;8.440;2023-11-21T05:39:03;2.20;;;0.87;;
81510;SDS011;70931;48.796;8.440;2023-11-21T05:41:28;2.20;;;0.70;;
81510;SDS011;70931;48.796;8.440;2023-11-21T05:43:53;1.07;;;0.70;;
81510;SDS011;70931;48.796;8.440;2023-11-21T05:46:18;2.93;;;0.70;;
81510;SDS011;70931;48.796;8.440;2023-11-21T05:48:43;1.50;;;0.60;;
81510;SDS011;70931;48.796;8.440;2023-11-21T05:51:09;2.63;;;0.90;;
81510;SDS011;70931;48.796;8.440;2023-11-21T05:53:34;1.67;;;0.90;;
81510;SDS011;70931;48.796;8.440;2023-11-21T05:55:59;1.63;;;0.70;;
81510;SDS011;70931;48.796;8.440;2023-11-21T05:58:25;2.17;;;0.88;;
81510;SDS011;70931;48.796;8.440;2023-11-21T06:00:50;1.77;;;0.87;;
81510;SDS011;70931;48.796;8.440;2023-11-21T06:03:15;2.53;;;0.70;;
81510;SDS011;70931;48.796;8.440;2023-11-21T06:05:40;1.37;;;0.70;;
81510;SDS011;70931;48.796;8.440;2023-11-21T06:08:06;1.50;;;0.50;;
81510;SDS011;70931;48.796;8.440;2023-11-21T06:10:31;1.13;;;0.60;;
81510;SDS011;70931;48.796;8.440;2023-11-21T06:12:56;0.87;;;0.50;;
81510;SDS011;70931;48.796;8.440;2023-11-21T06:15:21;0.50;;;0.40;;
81510;SDS011;70931;48.796;8.440;2023-11-21T06:17:47;0.87;;;0.30;;
81510;SDS011;70931;48.796;8.440;2023-11-21T06:20:12;1.23;;;0.57;;
81510;SDS011;70931;48.796;8.440;2023-11-21T06:22:38;1.37;;;0.60;;
81510;SDS011;70931;48.796;8.440;2023-11-21T06:25:05;1.48;;;0.88;;
81510;SDS011;70931;48.796;8.440;2023-11-21T06:27:32;1.27;;;0.60;;
81510;SDS011;70931;48.796;8.440;2023-11-21T06:29:57;1.13;;;0.60;;
81510;SDS011;70931;48.796;8.440;2023-11-21T06:32:22;1.60;;;0.57;;
81510;SDS011;70931;48.796;8.440;2023-11-21T06:34:48;1.90;;;0.57;;
81510;SDS011;70931;48.796;8.440;2023-11-21T06:37:13;1.30;;;0.60;;
81510;SDS011;70931;48.796;8.440;2023-11-21T06:39:38;1.63;;;0.60;;
81510;SDS011;70931;48.796;8.440;2023-11-21T06:42:03;0.40;;;0.40;;
81510;SDS011;70931;48.796;8.440;2023-11-21T06:44:29;0.40;;;0.40;;
81510;SDS011;70931;48.796;8.440;2023-11-21T06:46:54;0.50;;;0.50;;
81510;SDS011;70931;48.796;8.440;2023-11-21T06:49:19;1.27;;;0.50;;
81510;SDS011;70931;48.796;8.440;2023-11-21T06:51:44;0.63;;;0.50;;
81510;SDS011;70931;48.796;8.440;2023-11-21T06:54:09;1.73;;;0.57;;
81510;SDS011;70931;48.796;8.440;2023-11-21T06:56:35;1.07;;;0.50;;
81510;SDS011;70931;48.796;8.440;2023-11-21T06:59:00;1.63;;;0.73;;
81510;SDS011;70931;48.796;8.440;2023-11-21T07:01:25;0.73;;;0.40;;
81510;SDS011;70931;48.796;8.440;2023-11-21T07:03:50;1.03;;;0.40;;
81510;SDS011;70931;48.796;8.440;2023-11-21T07:06:15;0.53;;;0.27;;
81510;SDS011;70931;48.796;8.440;2023-11-21T07:08:41;0.90;;;0.40;;
81510;SDS011;70931;48.796;8.440;2023-11-21T07:11:06;0.53;;;0.20;;
81510;SDS011;70931;48.796;8.440;2023-11-21T07:13:31;0.30;;;0.30;;
81510;SDS011;70931;48.796;8.440;2023-11-21T07:15:59;2.03;;;0.33;;
81510;SDS011;70931;48.796;8.440;2023-11-21T07:20:50;0.85;;;0.35;;
81510;SDS011;70931;48.796;8.440;2023-11-21T07:23:15;0.57;;;0.30;;
81510;SDS011;70931;48.796;8.440;2023-11-21T07:25:40;1.03;;;0.50;;
81510;SDS011;70931;48.796;8.440;2023-11-21T07:28:06;0.60;;;0.40;;
81510;SDS011;70931;48.796;8.440;2023-11-21T07:30:31;1.13;;;0.57;;
81510;SDS011;70931;48.796;8.440;2023-11-21T07:32:56;0.43;;;0.40;;
81510;SDS011;70931;48.796;8.440;2023-11-21T07:35:21;0.80;;;0.50;;
81510;SDS011;70931;48.796;8.440;2023-11-21T07:37:47;1.83;;;0.50;;
81510;SDS011;70931;48.796;8.440;2023-11-21T07:40:12;1.27;;;0.43;;
81510;SDS011;70931;48.796;8.440;2023-11-21T07:42:37;1.23;;;0.60;;
81510;SDS011;70931;48.796;8.440;2023-11-21T07:45:03;1.00;;;0.50;;
81510;SDS011;70931;48.796;8.440;2023-11-21T07:47:30;0.57;;;0.40;;
81510;SDS011;70931;48.796;8.440;2023-11-21T07:49:55;1.70;;;0.60;;
81510;SDS011;70931;48.796;8.440;2023-11-21T07:52:20;0.53;;;0.40;;
81510;SDS011;70931;48.796;8.440;2023-11-21T07:54:45;0.43;;;0.30;;
81510;SDS011;70931;48.796;8.440;2023-11-21T07:57:10;2.30;;;0.50;;
81510;SDS011;70931;48.796;8.440;2023-11-21T07:59:36;0.37;;;0.30;;
81510;SDS011;70931;48.796;8.440;2023-11-21T08:02:01;0.30;;;0.30;;
81510;SDS011;70931;48.796;8.440;2023-11-21T08:04:26;1.13;;;0.50;;
81510;SDS011;70931;48.796;8.440;2023-11-21T08:06:51;1.60;;;0.50;;
81510;SDS011;70931;48.796;8.440;2023-11-21T08:09:17;0.50;;;0.30;;
81510;SDS011;70931;48.796;8.440;2023-11-21T08:11:42;0.53;;;0.37;;
81510;SDS011;70931;48.796;8.440;2023-11-21T08:14:07;2.17;;;0.50;;
81510;SDS011;70931;48.796;8.440;2023-11-21T08:16:33;1.40;;;0.50;;
81510;SDS011;70931;48.796;8.440;2023-11-21T08:18:58;0.63;;;0.50;;
81510;SDS011;70931;48.796;8.440;2023-11-21T08:21:23;1.37;;;0.60;;
81510;SDS011;70931;48.796;8.440;2023-11-21T08:23:48;1.17;;;0.50;;
81510;SDS011;70931;48.796;8.440;2023-11-21T08:26:15;1.40;;;0.43;;
81510;SDS011;70931;48.796;8.440;2023-11-21T08:28:41;2.88;;;0.75;;
81510;SDS011;70931;48.796;8.440;2023-11-21T08:31:06;0.40;;;0.40;;
81510;SDS011;70931;48.796;8.440;2023-11-21T08:33:31;0.93;;;0.60;;
81510;SDS011;70931;48.796;8.440;2023-11-21T08:35:57;0.97;;;0.60;;
81510;SDS011;70931;48.796;8.440;2023-11-21T08:38:22;1.03;;;0.63;;
81510;SDS011;70931;48.796;8.440;2023-11-21T08:40:47;0.90;;;0.57;;
81510;SDS011;70931;48.796;8.440;2023-11-21T08:43:12;1.47;;;0.70;;
81510;SDS011;70931;48.796;8.440;2023-11-21T08:45:37;0.57;;;0.50;;
81510;SDS011;70931;48.796;8.440;2023-11-21T08:48:03;0.50;;;0.50;;
81510;SDS011;70931;48.796;8.440;2023-11-21T08:50:28;0.70;;;0.70;;
81510;SDS011;70931;48.796;8.440;2023-11-21T08:52:54;0.65;;;0.40;;
81510;SDS011;70931;48.796;8.440;2023-11-21T08:55:19;0.40;;;0.40;;
81510;SDS011;70931;48.796;8.440;2023-11-21T08:57:44;1.23;;;0.50;;
81510;SDS011;70931;48.796;8.440;2023-11-21T09:00:10;0.87;;;0.50;;
81510;SDS011;70931;48.796;8.440;2023-11-21T09:02:35;0.70;;;0.50;;
81510;SDS011;70931;48.796;8.440;2023-11-21T09:05:01;0.50;;;0.47;;
81510;SDS011;70931;48.796;8.440;2023-11-21T09:07:26;0.57;;;0.50;;
81510;SDS011;70931;48.796;8.440;2023-11-21T09:09:51;0.60;;;0.40;;
81510;SDS011;70931;48.796;8.440;2023-11-21T09:12:16;0.43;;;0.40;;
81510;SDS011;70931;48.796;8.440;2023-11-21T09:14:42;1.30;;;0.50;;
81510;SDS011;70931;48.796;8.440;2023-11-21T09:17:09;0.40;;;0.40;;
81510;SDS011;70931;48.796;8.440;2023-11-21T09:19:35;0.35;;;0.30;;
81510;SDS011;70931;48.796;8.440;2023-11-21T09:22:00;0.73;;;0.40;;
81510;SDS011;70931;48.796;8.440;2023-11-21T09:24:25;1.40;;;0.40;;
81510;SDS011;70931;48.796;8.440;2023-11-21T09:26:50;1.03;;;0.50;;
81510;SDS011;70931;48.796;8.440;2023-11-21T09:29:15;0.20;;;0.17;;
81510;SDS011;70931;48.796;8.440;2023-11-21T09:31:41;1.03;;;0.50;;
81510;SDS011;70931;48.796;8.440;2023-11-21T09:34:06;0.30;;;0.30;;
81510;SDS011;70931;48.796;8.440;2023-11-21T09:36:31;1.93;;;0.40;;
81510;SDS011;70931;48.796;8.440;2023-11-21T09:38:56;0.37;;;0.20;;
81510;SDS011;70931;48.796;8.440;2023-11-21T09:41:25;1.07;;;0.30;;
81510;SDS011;70931;48.796;8.440;2023-11-21T09:43:58;0.10;;;0.10;;
81510;SDS011;70931;48.796;8.440;2023-11-21T09:46:27;0.30;;;0.28;;
81510;SDS011;70931;48.796;8.440;2023-11-21T09:48:53;0.88;;;0.40;;
81510;SDS011;70931;48.796;8.440;2023-11-21T09:51:19;0.88;;;0.45;;
81510;SDS011;70931;48.796;8.440;2023-11-21T09:53:45;0.77;;;0.45;;
81510;SDS011;70931;48.796;8.440;2023-11-21T09:56:14;0.15;;;0.15;;
81510;SDS011;70931;48.796;8.440;2023-11-21T09:58:40;0.30;;;0.30;;
81510;SDS011;70931;48.796;8.440;2023-11-21T10:01:05;0.20;;;0.20;;
81510;SDS011;70931;48.796;8.440;2023-11-21T10:03:31;0.40;;;0.30;;
81510;SDS011;70931;48.796;8.440;2023-11-21T10:05:56;0.90;;;0.37;;
81510;SDS011;70931;48.796;8.440;2023-11-21T10:08:22;0.85;;;0.30;;
81510;SDS011;70931;48.796;8.440;2023-11-21T10:10:49;0.10;;;0.10;;
81510;SDS011;70931;48.796;8.440;2023-11-21T10:13:18;0.40;;;0.30;;
81510;SDS011;70931;48.796;8.440;2023-11-21T10:15:43;0.32;;;0.30;;
81510;SDS011;70931;48.796;8.440;2023-11-21T10:18:09;0.35;;;0.35;;
81510;SDS011;70931;48.796;8.440;2023-11-21T10:20:34;0.87;;;0.40;;
81510;SDS011;70931;48.796;8.440;2023-11-21T10:23:00;1.00;;;0.50;;
81510;SDS011;70931;48.796;8.440;2023-11-21T10:25:25;1.10;;;0.60;;
81510;SDS011;70931;48.796;8.440;2023-11-21T10:27:56;1.47;;;0.77;;
81510;SDS011;70931;48.796;8.440;2023-11-21T10:30:24;1.67;;;0.70;;
81510;SDS011;70931;48.796;8.440;2023-11-21T10:32:56;0.80;;;0.50;;
81510;SDS011;70931;48.796;8.440;2023-11-21T10:35:24;0.93;;;0.70;;
81510;SDS011;70931;48.796;8.440;2023-11-21T10:37:50;1.30;;;0.70;;
81510;SDS011;70931;48.796;8.440;2023-11-21T10:40:27;3.47;;;0.60;;
81510;SDS011;70931;48.796;8.440;2023-11-21T10:42:52;1.02;;;0.60;;
81510;SDS011;70931;48.796;8.440;2023-11-21T10:45:18;2.50;;;1.03;;
81510;SDS011;70931;48.796;8.440;2023-11-21T10:47:43;3.80;;;1.30;;
81510;SDS011;70931;48.796;8.440;2023-11-21T10:50:09;2.83;;;1.10;;
81510;SDS011;70931;48.796;8.440;2023-11-21T10:52:34;4.10;;;1.55;;
81510;SDS011;70931;48.796;8.440;2023-11-21T10:55:00;6.27;;;2.87;;
81510;SDS011;70931;48.796;8.440;2023-11-21T10:57:25;7.73;;;3.20;;
81510;SDS011;70931;48.796;8.440;2023-11-21T10:59:50;8.30;;;4.03;;
81510;SDS011;70931;48.796;8.440;2023-11-21T11:04:50;8.38;;;4.22;;
81510;SDS011;70931;48.796;8.440;2023-11-21T11:07:17;10.00;;;4.95;;
81510;SDS011;70931;48.796;8.440;2023-11-21T11:09:42;10.80;;;5.25;;
81510;SDS011;70931;48.796;8.440;2023-11-21T11:12:09;9.65;;;5.22;;
81510;SDS011;70931;48.796;8.440;2023-11-21T11:14:35;10.13;;;5.28;;
81510;SDS011;70931;48.796;8.440;2023-11-21T11:17:01;10.70;;;5.15;;
81510;SDS011;70931;48.796;8.440;2023-11-21T11:19:26;8.32;;;4.28;;
81510;SDS011;70931;48.796;8.440;2023-11-21T11:33:02;7.45;;;3.70;;
81510;SDS011;70931;48.796;8.440;2023-11-21T11:40:47;7.83;;;3.87;;
81510;SDS011;70931;48.796;8.440;2023-11-21T11:43:12;8.52;;;4.20;;
81510;SDS011;70931;48.796;8.440;2023-11-21T11:45:38;8.60;;;4.13;;
81510;SDS011;70931;48.796;8.440;2023-11-21T11:48:05;8.15;;;4.40;;
81510;SDS011;70931;48.796;8.440;2023-11-21T11:50:30;8.55;;;4.47;;
81510;SDS011;70931;48.796;8.440;2023-11-21T11:53:11;8.70;;;4.30;;
81510;SDS011;70931;48.796;8.440;2023-11-21T11:55:38;7.50;;;3.47;;
81510;SDS011;70931;48.796;8.440;2023-11-21T11:58:04;8.43;;;3.90;;
81510;SDS011;70931;48.796;8.440;2023-11-21T12:00:34;7.47;;;3.28;;
81510;SDS011;70931;48.796;8.440;2023-11-21T12:03:00;6.78;;;3.15;;
81510;SDS011;70931;48.796;8.440;2023-11-21T12:05:26;7.70;;;3.85;;
81510;SDS011;70931;48.796;8.440;2023-11-21T12:07:53;8.30;;;3.80;;
81510;SDS011;70931;48.796;8.440;2023-11-21T12:10:20;7.82;;;3.55;;
81510;SDS011;70931;48.796;8.440;2023-11-21T12:12:50;7.95;;;3.67;;
81510;SDS011;70931;48.796;8.440;2023-11-21T12:15:16;7.20;;;3.58;;
81510;SDS011;70931;48.796;8.440;2023-11-21T12:17:42;7.20;;;3.20;;
81510;SDS011;70931;48.796;8.440;2023-11-21T12:20:08;7.00;;;2.92;;
81510;SDS011;70931;48.796;8.440;2023-11-21T12:22:35;8.15;;;3.97;;
81510;SDS011;70931;48.796;8.440;2023-11-21T12:25:00;9.50;;;3.30;;
81510;SDS011;70931;48.796;8.440;2023-11-21T12:27:25;8.93;;;4.03;;
81510;SDS011;70931;48.796;8.440;2023-11-21T12:29:50;7.97;;;3.97;;
81510;SDS011;70931;48.796;8.440;2023-11-21T12:32:16;9.40;;;4.07;;
81510;SDS011;70931;48.796;8.440;2023-11-21T12:34:41;8.80;;;3.80;;
81510;SDS011;70931;48.796;8.440;2023-11-21T12:37:06;9.60;;;3.97;;
81510;SDS011;70931;48.796;8.440;2023-11-21T12:39:32;9.17;;;4.93;;
81510;SDS011;70931;48.796;8.440;2023-11-21T12:41:57;8.90;;;4.33;;
81510;SDS011;70931;48.796;8.440;2023-11-21T12:44:23;8.07;;;4.45;;
81510;SDS011;70931;48.796;8.440;2023-11-21T12:46:48;10.03;;;4.77;;
81510;SDS011;70931;48.796;8.440;2023-11-21T12:49:13;9.17;;;4.53;;
81510;SDS011;70931;48.796;8.440;2023-11-21T12:51:39;9.27;;;4.10;;
81510;SDS011;70931;48.796;8.440;2023-11-21T12:54:04;11.33;;;4.90;;
81510;SDS011;70931;48.796;8.440;2023-11-21T12:56:31;8.20;;;4.05;;
81510;SDS011;70931;48.796;8.440;2023-11-21T12:58:56;10.70;;;4.90;;
81510;SDS011;70931;48.796;8.440;2023-11-21T13:01:24;9.27;;;4.30;;
81510;SDS011;70931;48.796;8.440;2023-11-21T13:03:50;12.43;;;5.88;;
81510;SDS011;70931;48.796;8.440;2023-11-21T13:06:15;10.53;;;5.20;;
81510;SDS011;70931;48.796;8.440;2023-11-21T13:08:43;13.10;;;6.50;;
81510;SDS011;70931;48.796;8.440;2023-11-21T13:11:09;12.02;;;6.50;;
81510;SDS011;70931;48.796;8.440;2023-11-21T13:13:36;10.10;;;5.38;;
81510;SDS011;70931;48.796;8.440;2023-11-21T13:16:01;9.47;;;4.70;;
81510;SDS011;70931;48.796;8.440;2023-11-21T13:18:28;10.52;;;5.78;;
81510;SDS011;70931;48.796;8.440;2023-11-21T13:20:54;11.77;;;5.82;;
81510;SDS011;70931;48.796;8.440;2023-11-21T13:23:20;12.27;;;6.65;;
81510;SDS011;70931;48.796;8.440;2023-11-21T13:25:45;12.00;;;6.97;;
81510;SDS011;70931;48.796;8.440;2023-11-21T13:28:11;13.00;;;6.70;;
81510;SDS011;70931;48.796;8.440;2023-11-21T13:30:37;12.40;;;7.03;;
81510;SDS011;70931;48.796;8.440;2023-11-21T13:33:03;13.23;;;6.80;;
81510;SDS011;70931;48.796;8.440;2023-11-21T13:35:29;11.25;;;6.05;;
81510;SDS011;70931;48.796;8.440;2023-11-21T13:37:54;13.33;;;6.90;;
81510;SDS011;70931;48.796;8.440;2023-11-21T13:40:20;13.73;;;7.47;;
81510;SDS011;70931;48.796;8.440;2023-11-21T13:42:45;12.02;;;7.05;;
81510;SDS011;70931;48.796;8.440;2023-11-21T13:45:11;14.17;;;7.67;;
81510;SDS011;70931;48.796;8.440;2023-11-21T13:47:36;11.50;;;6.55;;
81510;SDS011;70931;48.796;8.440;2023-11-21T13:50:01;11.23;;;5.50;;
81510;SDS011;70931;48.796;8.440;2023-11-21T13:52:27;9.83;;;5.20;;
81510;SDS011;70931;48.796;8.440;2023-11-21T13:54:52;11.40;;;5.37;;
81510;SDS011;70931;48.796;8.440;2023-11-21T13:57:17;10.57;;;5.30;;
81510;SDS011;70931;48.796;8.440;2023-11-21T13:59:42;12.97;;;6.77;;
81510;SDS011;70931;48.796;8.440;2023-11-21T14:02:07;14.87;;;7.27;;
81510;SDS011;70931;48.796;8.440;2023-11-21T14:04:33;13.57;;;6.43;;
81510;SDS011;70931;48.796;8.440;2023-11-21T14:06:58;12.47;;;6.80;;
81510;SDS011;70931;48.796;8.440;2023-11-21T14:09:23;12.67;;;6.33;;
81510;SDS011;70931;48.796;8.440;2023-11-21T14:11:49;9.82;;;5.35;;
81510;SDS011;70931;48.796;8.440;2023-11-21T14:14:19;12.55;;;6.20;;
81510;SDS011;70931;48.796;8.440;2023-11-21T14:16:45;11.30;;;5.07;;
81510;SDS011;70931;48.796;8.440;2023-11-21T14:19:10;11.43;;;5.40;;
81510;SDS011;70931;48.796;8.440;2023-11-21T14:21:35;11.07;;;5.63;;
81510;SDS011;70931;48.796;8.440;2023-11-21T14:24:00;12.20;;;5.63;;
81510;SDS011;70931;48.796;8.440;2023-11-21T14:26:26;10.60;;;5.43;;
81510;SDS011;70931;48.796;8.440;2023-11-21T14:28:51;9.83;;;4.87;;
81510;SDS011;70931;48.796;8.440;2023-11-21T14:31:16;7.97;;;3.90;;
81510;SDS011;70931;48.796;8.440;2023-11-21T14:33:41;9.87;;;3.90;;
81510;SDS011;70931;48.796;8.440;2023-11-21T14:36:07;6.73;;;3.03;;
81510;SDS011;70931;48.796;8.440;2023-11-21T14:38:32;9.93;;;4.50;;
81510;SDS011;70931;48.796;8.440;2023-11-21T14:40:58;10.23;;;5.23;;
81510;SDS011;70931;48.796;8.440;2023-11-21T14:43:23;11.83;;;5.73;;
81510;SDS011;70931;48.796;8.440;2023-11-21T14:45:48;10.53;;;6.00;;
81510;SDS011;70931;48.796;8.440;2023-11-21T14:48:13;10.60;;;5.37;;
81510;SDS011;70931;48.796;8.440;2023-11-21T14:50:38;10.60;;;5.30;;
81510;SDS011;70931;48.796;8.440;2023-11-21T14:53:04;9.53;;;5.13;;
81510;SDS011;70931;48.796;8.440;2023-11-21T14:55:29;10.60;;;4.93;;
81510;SDS011;70931;48.796;8.440;2023-11-21T14:57:54;9.60;;;4.57;;